sensor_id;sensor_type;location;lat;lon;timestamp;temperature;humidity
64855;DHT22;51321;50.428;8.378;2023-03-23T00:00:02;12.70;99.90
64855;DHT22;51321;50.428;8.378;2023-03-23T00:02:51;12.70;99.90
64855;DHT22;51321;50.428;8.378;2023-03-23T00:05:34;12.60;99.90
64855;DHT22;51321;50.428;8.378;2023-03-23T00:08:16;12.50;99.90
64855;DHT22;51321;50.428;8.378;2023-03-23T00:11:01;12.50;99.90
64855;DHT22;51321;50.428;8.378;2023-03-23T00:13:43;12.40;99.90
64855;DHT22;51321;50.428;8.378;2023-03-23T00:16:29;12.40;99.90
64855;DHT22;51321;50.428;8.378;2023-03-23T00:19:12;12.50;99.90
64855;DHT22;51321;50.428;8.378;2023-03-23T00:21:53;12.60;99.90
64855;DHT22;51321;50.428;8.378;2023-03-23T00:24:35;12.60;99.90
64855;DHT22;51321;50.428;8.378;2023-03-23T00:27:16;12.60;99.90
64855;DHT22;51321;50.428;8.378;2023-03-23T00:29:58;12.50;99.90
64855;DHT22;51321;50.428;8.378;2023-03-23T00:32:42;12.30;99.90
64855;DHT22;51321;50.428;8.378;2023-03-23T00:35:24;12.20;99.90
64855;DHT22;51321;50.428;8.378;2023-03-23T00:38:07;12.20;99.90
64855;DHT22;51321;50.428;8.378;2023-03-23T00:40:50;12.10;99.90
64855;DHT22;51321;50.428;8.378;2023-03-23T00:43:33;11.90;99.90
64855;DHT22;51321;50.428;8.378;2023-03-23T00:46:16;11.70;99.90
64855;DHT22;51321;50.428;8.378;2023-03-23T00:49:01;11.80;99.90
64855;DHT22;51321;50.428;8.378;2023-03-23T00:51:43;11.70;99.90
64855;DHT22;51321;50.428;8.378;2023-03-23T00:54:25;11.60;99.90
64855;DHT22;51321;50.428;8.378;2023-03-23T00:57:06;11.70;99.90
64855;DHT22;51321;50.428;8.378;2023-03-23T00:59:49;11.70;99.90
64855;DHT22;51321;50.428;8.378;2023-03-23T01:02:30;11.60;99.90
64855;DHT22;51321;50.428;8.378;2023-03-23T01:05:13;11.60;99.90
64855;DHT22;51321;50.428;8.378;2023-03-23T01:07:55;11.70;99.90
64855;DHT22;51321;50.428;8.378;2023-03-23T01:10:36;11.70;99.90
64855;DHT22;51321;50.428;8.378;2023-03-23T01:13:18;11.70;99.90
64855;DHT22;51321;50.428;8.378;2023-03-23T01:16:03;11.60;99.90
64855;DHT22;51321;50.428;8.378;2023-03-23T01:18:46;11.60;99.90
64855;DHT22;51321;50.428;8.378;2023-03-23T01:21:30;11.60;99.90
64855;DHT22;51321;50.428;8.378;2023-03-23T01:24:12;11.60;99.90
64855;DHT22;51321;50.428;8.378;2023-03-23T01:26:54;11.50;99.90
64855;DHT22;51321;50.428;8.378;2023-03-23T01:29:35;11.40;99.90
64855;DHT22;51321;50.428;8.378;2023-03-23T01:32:17;11.30;99.90
64855;DHT22;51321;50.428;8.378;2023-03-23T01:34:59;11.20;99.90
64855;DHT22;51321;50.428;8.378;2023-03-23T01:37:44;11.30;99.90
64855;DHT22;51321;50.428;8.378;2023-03-23T01:40:27;11.30;99.90
64855;DHT22;51321;50.428;8.378;2023-03-23T01:43:10;11.20;99.90
64855;DHT22;51321;50.428;8.378;2023-03-23T01:45:56;11.20;99.90
64855;DHT22;51321;50.428;8.378;2023-03-23T01:48:38;11.30;99.90
64855;DHT22;51321;50.428;8.378;2023-03-23T01:51:24;11.30;99.90
64855;DHT22;51321;50.428;8.378;2023-03-23T01:54:13;11.30;99.90
64855;DHT22;51321;50.428;8.378;2023-03-23T01:57:06;11.40;99.90
64855;DHT22;51321;50.428;8.378;2023-03-23T01:59:50;11.40;99.90
64855;DHT22;51321;50.428;8.378;2023-03-23T02:02:39;11.50;99.90
64855;DHT22;51321;50.428;8.378;2023-03-23T02:05:25;11.50;99.90
64855;DHT22;51321;50.428;8.378;2023-03-23T02:08:10;11.40;99.90
64855;DHT22;51321;50.428;8.378;2023-03-23T02:10:55;11.50;99.90
64855;DHT22;51321;50.428;8.378;2023-03-23T02:13:36;11.40;99.90
64855;DHT22;51321;50.428;8.378;2023-03-23T02:16:25;11.30;99.90
64855;DHT22;51321;50.428;8.378;2023-03-23T02:19:20;11.20;99.90
64855;DHT22;51321;50.428;8.378;2023-03-23T02:22:39;11.20;99.90
64855;DHT22;51321;50.428;8.378;2023-03-23T02:25:48;11.30;99.90
64855;DHT22;51321;50.428;8.378;2023-03-23T02:29:06;11.40;99.90
64855;DHT22;51321;50.428;8.378;2023-03-23T02:35:35;11.60;99.90
64855;DHT22;51321;50.428;8.378;2023-03-23T02:38:22;11.70;99.90
64855;DHT22;51321;50.428;8.378;2023-03-23T02:41:08;11.70;99.90
64855;DHT22;51321;50.428;8.378;2023-03-23T02:43:53;11.80;99.90
64855;DHT22;51321;50.428;8.378;2023-03-23T02:46:45;11.80;99.90
64855;DHT22;51321;50.428;8.378;2023-03-23T02:49:29;11.70;99.90
64855;DHT22;51321;50.428;8.378;2023-03-23T02:52:18;11.70;99.90
64855;DHT22;51321;50.428;8.378;2023-03-23T02:55:07;11.70;99.90
64855;DHT22;51321;50.428;8.378;2023-03-23T02:57:53;11.70;99.90
64855;DHT22;51321;50.428;8.378;2023-03-23T03:00:41;11.70;99.90
64855;DHT22;51321;50.428;8.378;2023-03-23T03:03:28;11.70;99.90
64855;DHT22;51321;50.428;8.378;2023-03-23T03:06:18;11.70;99.90
64855;DHT22;51321;50.428;8.378;2023-03-23T03:09:12;11.70;99.90
64855;DHT22;51321;50.428;8.378;2023-03-23T03:11:59;11.60;99.90
64855;DHT22;51321;50.428;8.378;2023-03-23T03:14:50;11.60;99.90
64855;DHT22;51321;50.428;8.378;2023-03-23T03:17:35;11.50;99.90
64855;DHT22;51321;50.428;8.378;2023-03-23T03:20:20;11.50;99.90
64855;DHT22;51321;50.428;8.378;2023-03-23T03:23:03;11.40;99.90
64855;DHT22;51321;50.428;8.378;2023-03-23T03:25:51;11.30;99.90
64855;DHT22;51321;50.428;8.378;2023-03-23T03:28:43;11.40;99.90
64855;DHT22;51321;50.428;8.378;2023-03-23T03:31:30;11.30;99.90
64855;DHT22;51321;50.428;8.378;2023-03-23T03:34:13;11.20;99.90
64855;DHT22;51321;50.428;8.378;2023-03-23T03:36:58;11.10;99.90
64855;DHT22;51321;50.428;8.378;2023-03-23T03:39:42;11.10;99.90
64855;DHT22;51321;50.428;8.378;2023-03-23T03:42:27;11.00;99.90
64855;DHT22;51321;50.428;8.378;2023-03-23T03:45:11;11.00;99.90
64855;DHT22;51321;50.428;8.378;2023-03-23T03:47:53;11.00;99.90
64855;DHT22;51321;50.428;8.378;2023-03-23T03:50:37;11.10;99.90
64855;DHT22;51321;50.428;8.378;2023-03-23T03:53:18;11.00;99.90
64855;DHT22;51321;50.428;8.378;2023-03-23T03:55:59;10.90;99.90
64855;DHT22;51321;50.428;8.378;2023-03-23T03:58:49;11.00;99.90
64855;DHT22;51321;50.428;8.378;2023-03-23T04:01:37;10.90;99.90
64855;DHT22;51321;50.428;8.378;2023-03-23T04:04:18;10.90;99.90
64855;DHT22;51321;50.428;8.378;2023-03-23T04:06:59;10.90;99.90
64855;DHT22;51321;50.428;8.378;2023-03-23T04:09:42;10.90;99.90
64855;DHT22;51321;50.428;8.378;2023-03-23T04:12:29;11.00;99.90
64855;DHT22;51321;50.428;8.378;2023-03-23T04:15:13;10.90;99.90
64855;DHT22;51321;50.428;8.378;2023-03-23T04:17:56;10.70;99.90
64855;DHT22;51321;50.428;8.378;2023-03-23T04:20:39;10.70;99.90
64855;DHT22;51321;50.428;8.378;2023-03-23T04:23:21;10.60;99.90
64855;DHT22;51321;50.428;8.378;2023-03-23T04:26:05;10.60;99.90
64855;DHT22;51321;50.428;8.378;2023-03-23T04:28:55;10.70;99.90
64855;DHT22;51321;50.428;8.378;2023-03-23T04:31:50;10.80;99.90
64855;DHT22;51321;50.428;8.378;2023-03-23T04:34:43;11.00;99.90
64855;DHT22;51321;50.428;8.378;2023-03-23T04:37:28;11.10;99.90
64855;DHT22;51321;50.428;8.378;2023-03-23T04:40:17;11.10;99.90
64855;DHT22;51321;50.428;8.378;2023-03-23T04:43:10;11.20;99.90
64855;DHT22;51321;50.428;8.378;2023-03-23T04:46:08;11.30;99.90
64855;DHT22;51321;50.428;8.378;2023-03-23T04:48:53;11.30;99.90
64855;DHT22;51321;50.428;8.378;2023-03-23T04:51:47;11.40;99.90
64855;DHT22;51321;50.428;8.378;2023-03-23T04:54:36;11.30;99.90
64855;DHT22;51321;50.428;8.378;2023-03-23T04:57:20;11.30;99.90
64855;DHT22;51321;50.428;8.378;2023-03-23T05:00:22;11.40;99.90
64855;DHT22;51321;50.428;8.378;2023-03-23T05:03:06;11.30;99.90
64855;DHT22;51321;50.428;8.378;2023-03-23T05:05:53;11.30;99.90
64855;DHT22;51321;50.428;8.378;2023-03-23T05:08:35;11.20;99.90
64855;DHT22;51321;50.428;8.378;2023-03-23T05:11:19;11.20;99.90
64855;DHT22;51321;50.428;8.378;2023-03-23T05:14:03;11.20;99.90
64855;DHT22;51321;50.428;8.378;2023-03-23T05:16:46;11.20;99.90
64855;DHT22;51321;50.428;8.378;2023-03-23T05:19:32;11.30;99.90
64855;DHT22;51321;50.428;8.378;2023-03-23T05:22:36;11.30;99.90
64855;DHT22;51321;50.428;8.378;2023-03-23T05:25:19;11.40;99.90
64855;DHT22;51321;50.428;8.378;2023-03-23T05:28:06;11.40;99.90
64855;DHT22;51321;50.428;8.378;2023-03-23T05:31:03;11.40;99.90
64855;DHT22;51321;50.428;8.378;2023-03-23T05:33:46;11.50;99.90
64855;DHT22;51321;50.428;8.378;2023-03-23T05:36:40;11.40;99.90
64855;DHT22;51321;50.428;8.378;2023-03-23T05:39:39;11.40;99.90
64855;DHT22;51321;50.428;8.378;2023-03-23T05:42:47;11.40;99.90
64855;DHT22;51321;50.428;8.378;2023-03-23T05:45:36;11.50;99.90
64855;DHT22;51321;50.428;8.378;2023-03-23T05:48:19;11.50;99.90
64855;DHT22;51321;50.428;8.378;2023-03-23T05:51:01;11.60;99.90
64855;DHT22;51321;50.428;8.378;2023-03-23T05:53:43;11.60;99.90
64855;DHT22;51321;50.428;8.378;2023-03-23T05:56:29;11.60;99.90
64855;DHT22;51321;50.428;8.378;2023-03-23T05:59:24;11.70;99.90
64855;DHT22;51321;50.428;8.378;2023-03-23T06:02:09;11.70;99.90
64855;DHT22;51321;50.428;8.378;2023-03-23T06:04:51;11.60;99.90
64855;DHT22;51321;50.428;8.378;2023-03-23T06:07:42;11.70;99.90
64855;DHT22;51321;50.428;8.378;2023-03-23T06:10:23;11.80;99.90
64855;DHT22;51321;50.428;8.378;2023-03-23T06:13:13;11.80;99.90
64855;DHT22;51321;50.428;8.378;2023-03-23T06:16:07;11.80;99.90
64855;DHT22;51321;50.428;8.378;2023-03-23T06:19:10;11.80;99.90
64855;DHT22;51321;50.428;8.378;2023-03-23T06:21:59;11.80;99.90
64855;DHT22;51321;50.428;8.378;2023-03-23T06:24:57;11.90;99.90
64855;DHT22;51321;50.428;8.378;2023-03-23T06:27:47;11.90;99.90
64855;DHT22;51321;50.428;8.378;2023-03-23T06:30:35;12.00;99.90
64855;DHT22;51321;50.428;8.378;2023-03-23T06:33:37;12.00;99.90
64855;DHT22;51321;50.428;8.378;2023-03-23T06:36:31;12.00;99.90
64855;DHT22;51321;50.428;8.378;2023-03-23T06:39:24;12.10;99.90
64855;DHT22;51321;50.428;8.378;2023-03-23T06:42:22;12.10;99.90
64855;DHT22;51321;50.428;8.378;2023-03-23T06:45:25;12.10;99.90
64855;DHT22;51321;50.428;8.378;2023-03-23T06:48:42;12.10;99.90
64855;DHT22;51321;50.428;8.378;2023-03-23T06:51:28;12.10;99.90
64855;DHT22;51321;50.428;8.378;2023-03-23T06:54:09;12.10;99.90
64855;DHT22;51321;50.428;8.378;2023-03-23T06:56:53;12.20;99.90
64855;DHT22;51321;50.428;8.378;2023-03-23T06:59:34;12.30;99.90
64855;DHT22;51321;50.428;8.378;2023-03-23T07:02:16;12.30;99.90
64855;DHT22;51321;50.428;8.378;2023-03-23T07:05:04;12.30;99.90
64855;DHT22;51321;50.428;8.378;2023-03-23T07:07:47;12.20;99.90
64855;DHT22;51321;50.428;8.378;2023-03-23T07:10:38;12.20;99.90
64855;DHT22;51321;50.428;8.378;2023-03-23T07:13:22;12.30;99.90
64855;DHT22;51321;50.428;8.378;2023-03-23T07:16:08;12.30;99.90
64855;DHT22;51321;50.428;8.378;2023-03-23T07:18:52;12.30;99.90
64855;DHT22;51321;50.428;8.378;2023-03-23T07:21:36;12.40;99.90
64855;DHT22;51321;50.428;8.378;2023-03-23T07:24:21;12.40;99.90
64855;DHT22;51321;50.428;8.378;2023-03-23T07:27:24;12.30;99.90
64855;DHT22;51321;50.428;8.378;2023-03-23T07:30:12;12.40;99.90
64855;DHT22;51321;50.428;8.378;2023-03-23T07:32:54;12.40;99.90
64855;DHT22;51321;50.428;8.378;2023-03-23T07:35:36;12.60;99.90
64855;DHT22;51321;50.428;8.378;2023-03-23T07:38:24;12.60;99.90
64855;DHT22;51321;50.428;8.378;2023-03-23T07:41:15;12.60;99.90
64855;DHT22;51321;50.428;8.378;2023-03-23T07:43:58;12.60;99.90
64855;DHT22;51321;50.428;8.378;2023-03-23T07:46:48;12.60;99.90
64855;DHT22;51321;50.428;8.378;2023-03-23T07:49:42;12.60;99.90
64855;DHT22;51321;50.428;8.378;2023-03-23T07:52:41;12.60;99.90
64855;DHT22;51321;50.428;8.378;2023-03-23T07:55:26;12.60;99.90
64855;DHT22;51321;50.428;8.378;2023-03-23T07:58:20;12.60;99.90
64855;DHT22;51321;50.428;8.378;2023-03-23T08:01:07;12.70;99.90
64855;DHT22;51321;50.428;8.378;2023-03-23T08:03:51;12.80;99.90
64855;DHT22;51321;50.428;8.378;2023-03-23T08:06:49;12.90;99.90
64855;DHT22;51321;50.428;8.378;2023-03-23T08:09:49;12.90;99.90
64855;DHT22;51321;50.428;8.378;2023-03-23T08:12:55;12.90;99.90
64855;DHT22;51321;50.428;8.378;2023-03-23T08:15:59;13.00;99.90
64855;DHT22;51321;50.428;8.378;2023-03-23T08:19:06;13.00;99.90
64855;DHT22;51321;50.428;8.378;2023-03-23T08:21:50;13.00;99.90
64855;DHT22;51321;50.428;8.378;2023-03-23T08:24:32;13.00;99.90
64855;DHT22;51321;50.428;8.378;2023-03-23T08:27:39;13.10;99.90
64855;DHT22;51321;50.428;8.378;2023-03-23T08:30:48;13.30;99.90
64855;DHT22;51321;50.428;8.378;2023-03-23T08:34:02;13.40;99.90
64855;DHT22;51321;50.428;8.378;2023-03-23T08:37:00;13.50;99.90
64855;DHT22;51321;50.428;8.378;2023-03-23T08:40:06;13.50;99.90
64855;DHT22;51321;50.428;8.378;2023-03-23T08:42:53;13.50;99.90
64855;DHT22;51321;50.428;8.378;2023-03-23T08:45:59;13.40;99.90
64855;DHT22;51321;50.428;8.378;2023-03-23T08:49:01;13.40;99.90
64855;DHT22;51321;50.428;8.378;2023-03-23T08:51:55;13.40;99.90
64855;DHT22;51321;50.428;8.378;2023-03-23T08:54:44;13.40;99.90
64855;DHT22;51321;50.428;8.378;2023-03-23T08:57:50;13.50;99.90
64855;DHT22;51321;50.428;8.378;2023-03-23T09:00:48;13.80;99.90
64855;DHT22;51321;50.428;8.378;2023-03-23T09:03:54;13.90;99.90
64855;DHT22;51321;50.428;8.378;2023-03-23T09:06:35;13.90;99.90
64855;DHT22;51321;50.428;8.378;2023-03-23T09:09:17;13.90;99.90
64855;DHT22;51321;50.428;8.378;2023-03-23T09:11:58;14.00;99.90
64855;DHT22;51321;50.428;8.378;2023-03-23T09:14:40;14.00;99.90
64855;DHT22;51321;50.428;8.378;2023-03-23T09:17:26;14.00;99.90
64855;DHT22;51321;50.428;8.378;2023-03-23T09:20:13;14.20;99.90
64855;DHT22;51321;50.428;8.378;2023-03-23T09:22:56;14.30;99.90
64855;DHT22;51321;50.428;8.378;2023-03-23T09:25:38;14.40;99.90
64855;DHT22;51321;50.428;8.378;2023-03-23T09:28:20;14.60;99.90
64855;DHT22;51321;50.428;8.378;2023-03-23T09:31:03;14.60;99.90
64855;DHT22;51321;50.428;8.378;2023-03-23T09:33:44;14.40;99.90
64855;DHT22;51321;50.428;8.378;2023-03-23T09:36:27;14.40;99.90
64855;DHT22;51321;50.428;8.378;2023-03-23T09:39:11;14.40;99.90
64855;DHT22;51321;50.428;8.378;2023-03-23T09:42:02;14.50;99.90
64855;DHT22;51321;50.428;8.378;2023-03-23T09:44:55;14.40;99.90
64855;DHT22;51321;50.428;8.378;2023-03-23T09:47:45;14.40;99.90
64855;DHT22;51321;50.428;8.378;2023-03-23T09:50:30;14.30;99.90
64855;DHT22;51321;50.428;8.378;2023-03-23T09:53:16;14.10;99.90
64855;DHT22;51321;50.428;8.378;2023-03-23T09:56:00;13.90;99.90
64855;DHT22;51321;50.428;8.378;2023-03-23T09:58:49;13.90;99.90
64855;DHT22;51321;50.428;8.378;2023-03-23T10:01:34;13.90;99.90
64855;DHT22;51321;50.428;8.378;2023-03-23T10:04:32;13.90;99.90
64855;DHT22;51321;50.428;8.378;2023-03-23T10:07:18;13.90;99.90
64855;DHT22;51321;50.428;8.378;2023-03-23T10:10:07;13.90;99.90
64855;DHT22;51321;50.428;8.378;2023-03-23T10:12:53;13.90;99.90
64855;DHT22;51321;50.428;8.378;2023-03-23T10:15:39;13.80;99.90
64855;DHT22;51321;50.428;8.378;2023-03-23T10:18:28;13.80;99.90
64855;DHT22;51321;50.428;8.378;2023-03-23T10:21:14;13.90;99.90
64855;DHT22;51321;50.428;8.378;2023-03-23T10:23:59;14.00;99.90
64855;DHT22;51321;50.428;8.378;2023-03-23T10:26:51;14.10;99.90
64855;DHT22;51321;50.428;8.378;2023-03-23T10:29:39;14.00;99.90
64855;DHT22;51321;50.428;8.378;2023-03-23T10:32:39;14.10;99.90
64855;DHT22;51321;50.428;8.378;2023-03-23T10:35:26;14.10;99.90
64855;DHT22;51321;50.428;8.378;2023-03-23T10:38:13;14.10;99.90
64855;DHT22;51321;50.428;8.378;2023-03-23T10:40:59;13.90;99.90
64855;DHT22;51321;50.428;8.378;2023-03-23T10:43:44;13.70;99.90
64855;DHT22;51321;50.428;8.378;2023-03-23T10:46:34;13.70;99.90
64855;DHT22;51321;50.428;8.378;2023-03-23T10:49:22;13.70;99.90
64855;DHT22;51321;50.428;8.378;2023-03-23T10:52:15;13.80;99.90
64855;DHT22;51321;50.428;8.378;2023-03-23T10:55:02;14.00;99.90
64855;DHT22;51321;50.428;8.378;2023-03-23T10:57:58;14.50;99.90
64855;DHT22;51321;50.428;8.378;2023-03-23T11:00:43;14.90;99.90
64855;DHT22;51321;50.428;8.378;2023-03-23T11:03:35;15.20;99.90
64855;DHT22;51321;50.428;8.378;2023-03-23T11:06:22;15.30;99.90
64855;DHT22;51321;50.428;8.378;2023-03-23T11:09:10;15.20;99.90
64855;DHT22;51321;50.428;8.378;2023-03-23T11:11:54;15.20;99.90
64855;DHT22;51321;50.428;8.378;2023-03-23T11:14:36;15.00;99.90
64855;DHT22;51321;50.428;8.378;2023-03-23T11:17:22;15.00;99.90
64855;DHT22;51321;50.428;8.378;2023-03-23T11:20:11;14.90;99.90
64855;DHT22;51321;50.428;8.378;2023-03-23T11:22:53;14.70;99.90
64855;DHT22;51321;50.428;8.378;2023-03-23T11:25:54;14.80;99.90
64855;DHT22;51321;50.428;8.378;2023-03-23T11:28:37;14.80;99.90
64855;DHT22;51321;50.428;8.378;2023-03-23T11:31:20;14.70;99.90
64855;DHT22;51321;50.428;8.378;2023-03-23T11:34:08;14.50;99.90
64855;DHT22;51321;50.428;8.378;2023-03-23T11:36:52;14.40;99.90
64855;DHT22;51321;50.428;8.378;2023-03-23T11:39:48;14.30;99.90
64855;DHT22;51321;50.428;8.378;2023-03-23T11:42:35;14.30;99.90
64855;DHT22;51321;50.428;8.378;2023-03-23T11:45:21;14.20;99.90
64855;DHT22;51321;50.428;8.378;2023-03-23T11:48:26;14.20;99.90
64855;DHT22;51321;50.428;8.378;2023-03-23T11:51:14;14.20;99.90
64855;DHT22;51321;50.428;8.378;2023-03-23T11:54:02;14.20;99.90
64855;DHT22;51321;50.428;8.378;2023-03-23T11:56:46;14.20;99.90
64855;DHT22;51321;50.428;8.378;2023-03-23T11:59:29;14.40;99.90
64855;DHT22;51321;50.428;8.378;2023-03-23T12:03:57;14.60;99.90
64855;DHT22;51321;50.428;8.378;2023-03-23T12:06:03;14.60;99.90
64855;DHT22;51321;50.428;8.378;2023-03-23T12:08:56;14.70;99.90
64855;DHT22;51321;50.428;8.378;2023-03-23T12:11:40;14.80;99.90
64855;DHT22;51321;50.428;8.378;2023-03-23T12:14:35;14.90;99.90
64855;DHT22;51321;50.428;8.378;2023-03-23T12:17:27;14.80;99.90
64855;DHT22;51321;50.428;8.378;2023-03-23T12:20:19;15.00;99.90
64855;DHT22;51321;50.428;8.378;2023-03-23T12:23:15;15.10;99.90
64855;DHT22;51321;50.428;8.378;2023-03-23T12:26:18;15.50;99.90
64855;DHT22;51321;50.428;8.378;2023-03-23T12:29:30;15.90;99.90
64855;DHT22;51321;50.428;8.378;2023-03-23T12:32:29;16.10;99.90
64855;DHT22;51321;50.428;8.378;2023-03-23T12:35:25;16.30;99.90
64855;DHT22;51321;50.428;8.378;2023-03-23T12:38:29;16.30;99.90
64855;DHT22;51321;50.428;8.378;2023-03-23T12:41:16;16.20;99.90
64855;DHT22;51321;50.428;8.378;2023-03-23T12:44:00;16.00;99.90
64855;DHT22;51321;50.428;8.378;2023-03-23T12:46:59;15.80;99.90
64855;DHT22;51321;50.428;8.378;2023-03-23T12:49:49;15.90;99.90
64855;DHT22;51321;50.428;8.378;2023-03-23T12:52:36;16.00;99.90
64855;DHT22;51321;50.428;8.378;2023-03-23T12:55:30;16.10;99.90
64855;DHT22;51321;50.428;8.378;2023-03-23T12:58:17;16.10;99.90
64855;DHT22;51321;50.428;8.378;2023-03-23T13:01:04;16.10;99.90
64855;DHT22;51321;50.428;8.378;2023-03-23T13:03:52;16.00;99.90
64855;DHT22;51321;50.428;8.378;2023-03-23T13:06:36;16.00;99.90
64855;DHT22;51321;50.428;8.378;2023-03-23T13:09:27;16.00;99.90
64855;DHT22;51321;50.428;8.378;2023-03-23T13:12:14;16.10;99.90
64855;DHT22;51321;50.428;8.378;2023-03-23T13:15:05;16.10;99.90
64855;DHT22;51321;50.428;8.378;2023-03-23T13:17:54;16.10;99.90
64855;DHT22;51321;50.428;8.378;2023-03-23T13:21:00;16.20;99.90
64855;DHT22;51321;50.428;8.378;2023-03-23T13:23:45;16.30;99.90
64855;DHT22;51321;50.428;8.378;2023-03-23T13:26:30;16.30;99.90
64855;DHT22;51321;50.428;8.378;2023-03-23T13:29:18;16.20;99.90
64855;DHT22;51321;50.428;8.378;2023-03-23T13:32:11;16.10;99.90
64855;DHT22;51321;50.428;8.378;2023-03-23T13:34:54;16.00;99.90
64855;DHT22;51321;50.428;8.378;2023-03-23T13:37:41;16.10;99.90
64855;DHT22;51321;50.428;8.378;2023-03-23T13:40:26;16.20;99.90
64855;DHT22;51321;50.428;8.378;2023-03-23T13:43:08;16.30;99.90
64855;DHT22;51321;50.428;8.378;2023-03-23T13:45:52;16.60;99.90
64855;DHT22;51321;50.428;8.378;2023-03-23T13:48:45;16.70;99.90
64855;DHT22;51321;50.428;8.378;2023-03-23T13:51:34;16.60;99.90
64855;DHT22;51321;50.428;8.378;2023-03-23T13:54:25;16.50;99.90
64855;DHT22;51321;50.428;8.378;2023-03-23T13:57:25;16.40;99.90
64855;DHT22;51321;50.428;8.378;2023-03-23T14:00:31;16.40;99.90
64855;DHT22;51321;50.428;8.378;2023-03-23T14:03:25;16.30;99.90
64855;DHT22;51321;50.428;8.378;2023-03-23T14:06:13;16.20;99.90
64855;DHT22;51321;50.428;8.378;2023-03-23T14:09:34;16.10;99.90
64855;DHT22;51321;50.428;8.378;2023-03-23T14:12:26;15.90;99.90
64855;DHT22;51321;50.428;8.378;2023-03-23T14:15:13;15.80;99.90
64855;DHT22;51321;50.428;8.378;2023-03-23T14:17:56;15.80;99.90
64855;DHT22;51321;50.428;8.378;2023-03-23T14:20:41;15.60;99.90
64855;DHT22;51321;50.428;8.378;2023-03-23T14:23:23;15.70;99.90
64855;DHT22;51321;50.428;8.378;2023-03-23T14:26:10;15.70;99.90
64855;DHT22;51321;50.428;8.378;2023-03-23T14:28:55;15.80;99.90
64855;DHT22;51321;50.428;8.378;2023-03-23T14:31:39;15.70;99.90
64855;DHT22;51321;50.428;8.378;2023-03-23T14:34:22;15.50;99.90
64855;DHT22;51321;50.428;8.378;2023-03-23T14:37:10;15.30;99.90
64855;DHT22;51321;50.428;8.378;2023-03-23T14:39:57;15.20;99.90
64855;DHT22;51321;50.428;8.378;2023-03-23T14:42:39;14.90;99.90
64855;DHT22;51321;50.428;8.378;2023-03-23T14:45:21;14.80;99.90
64855;DHT22;51321;50.428;8.378;2023-03-23T14:48:09;14.90;99.90
64855;DHT22;51321;50.428;8.378;2023-03-23T14:50:57;15.10;99.90
64855;DHT22;51321;50.428;8.378;2023-03-23T14:53:47;15.30;99.90
64855;DHT22;51321;50.428;8.378;2023-03-23T14:56:35;15.30;99.90
64855;DHT22;51321;50.428;8.378;2023-03-23T14:59:17;15.30;99.90
64855;DHT22;51321;50.428;8.378;2023-03-23T15:02:00;15.30;99.90
64855;DHT22;51321;50.428;8.378;2023-03-23T15:04:45;15.30;99.90
64855;DHT22;51321;50.428;8.378;2023-03-23T15:07:32;15.40;99.90
64855;DHT22;51321;50.428;8.378;2023-03-23T15:10:24;15.50;99.90
64855;DHT22;51321;50.428;8.378;2023-03-23T15:13:11;15.60;99.90
64855;DHT22;51321;50.428;8.378;2023-03-23T15:16:03;15.60;99.90
64855;DHT22;51321;50.428;8.378;2023-03-23T15:18:50;15.60;99.90
64855;DHT22;51321;50.428;8.378;2023-03-23T15:21:34;15.70;99.90
64855;DHT22;51321;50.428;8.378;2023-03-23T15:24:26;15.80;99.90
64855;DHT22;51321;50.428;8.378;2023-03-23T15:27:16;15.70;99.90
64855;DHT22;51321;50.428;8.378;2023-03-23T15:29:59;15.70;99.90
64855;DHT22;51321;50.428;8.378;2023-03-23T15:32:45;15.70;99.90
64855;DHT22;51321;50.428;8.378;2023-03-23T15:35:34;15.70;99.90
64855;DHT22;51321;50.428;8.378;2023-03-23T15:38:20;15.70;99.90
64855;DHT22;51321;50.428;8.378;2023-03-23T15:41:06;15.70;99.90
64855;DHT22;51321;50.428;8.378;2023-03-23T15:44:20;15.60;99.90
64855;DHT22;51321;50.428;8.378;2023-03-23T15:47:14;15.60;99.90
64855;DHT22;51321;50.428;8.378;2023-03-23T15:50:04;15.50;99.90
64855;DHT22;51321;50.428;8.378;2023-03-23T15:52:50;15.40;99.90
64855;DHT22;51321;50.428;8.378;2023-03-23T15:55:36;15.30;99.90
64855;DHT22;51321;50.428;8.378;2023-03-23T15:58:18;15.20;99.90
64855;DHT22;51321;50.428;8.378;2023-03-23T16:01:04;15.10;99.90
64855;DHT22;51321;50.428;8.378;2023-03-23T16:03:49;15.00;99.90
64855;DHT22;51321;50.428;8.378;2023-03-23T16:06:34;15.00;99.90
64855;DHT22;51321;50.428;8.378;2023-03-23T16:09:19;15.00;99.90
64855;DHT22;51321;50.428;8.378;2023-03-23T16:12:01;15.00;99.90
64855;DHT22;51321;50.428;8.378;2023-03-23T16:14:43;15.00;99.90
64855;DHT22;51321;50.428;8.378;2023-03-23T16:17:26;15.00;99.90
64855;DHT22;51321;50.428;8.378;2023-03-23T16:20:14;14.90;99.90
64855;DHT22;51321;50.428;8.378;2023-03-23T16:22:57;14.90;99.90
64855;DHT22;51321;50.428;8.378;2023-03-23T16:25:39;15.00;99.90
64855;DHT22;51321;50.428;8.378;2023-03-23T16:28:23;14.80;99.90
64855;DHT22;51321;50.428;8.378;2023-03-23T16:31:05;14.70;99.90
64855;DHT22;51321;50.428;8.378;2023-03-23T16:33:48;14.60;99.90
64855;DHT22;51321;50.428;8.378;2023-03-23T16:36:33;14.50;99.90
64855;DHT22;51321;50.428;8.378;2023-03-23T16:39:14;14.50;99.90
64855;DHT22;51321;50.428;8.378;2023-03-23T16:41:57;14.50;99.90
64855;DHT22;51321;50.428;8.378;2023-03-23T16:44:39;14.40;99.90
64855;DHT22;51321;50.428;8.378;2023-03-23T16:47:22;14.40;99.90
64855;DHT22;51321;50.428;8.378;2023-03-23T16:50:10;14.30;99.90
64855;DHT22;51321;50.428;8.378;2023-03-23T16:52:54;14.30;99.90
64855;DHT22;51321;50.428;8.378;2023-03-23T16:55:35;14.20;99.90
64855;DHT22;51321;50.428;8.378;2023-03-23T16:58:17;14.20;99.90
64855;DHT22;51321;50.428;8.378;2023-03-23T17:01:02;14.20;99.90
64855;DHT22;51321;50.428;8.378;2023-03-23T17:03:44;14.10;99.90
64855;DHT22;51321;50.428;8.378;2023-03-23T17:06:28;14.10;99.90
64855;DHT22;51321;50.428;8.378;2023-03-23T17:09:13;14.00;99.90
64855;DHT22;51321;50.428;8.378;2023-03-23T17:11:59;13.90;99.90
64855;DHT22;51321;50.428;8.378;2023-03-23T17:14:44;13.80;99.90
64855;DHT22;51321;50.428;8.378;2023-03-23T17:17:28;13.80;99.90
64855;DHT22;51321;50.428;8.378;2023-03-23T17:20:12;13.60;99.90
64855;DHT22;51321;50.428;8.378;2023-03-23T17:22:55;13.60;99.90
64855;DHT22;51321;50.428;8.378;2023-03-23T17:25:38;13.60;99.90
64855;DHT22;51321;50.428;8.378;2023-03-23T17:28:20;13.50;99.90
64855;DHT22;51321;50.428;8.378;2023-03-23T17:31:05;13.40;99.90
64855;DHT22;51321;50.428;8.378;2023-03-23T17:33:48;13.30;99.90
64855;DHT22;51321;50.428;8.378;2023-03-23T17:36:31;13.30;99.90
64855;DHT22;51321;50.428;8.378;2023-03-23T17:39:14;13.20;99.90
64855;DHT22;51321;50.428;8.378;2023-03-23T17:41:58;13.20;99.90
64855;DHT22;51321;50.428;8.378;2023-03-23T17:44:42;13.10;99.90